Boeing 737-8K2W from Transavia France at Funchal.
 Regi:F-GZHE  LARGER
 MSN Year:2615 2008
 Date of picture:2019-05-22 17:12
 Position:05
 Flight: DEP OPO TO3459 Porto Francisco Sa Carneiro Portugal
 Logs: OPO Porto TO3459 Transavia France 17:04 PM B738 departed
 Notam LPMA A1836/19 International 05/22/2019 0902 05/22/2019 1700 GRASS CUTTING ALONG RWY 05/23 STRIPS. MEN AND EQUIPMENT UNDER TOWER CONTROL AND AERODROME AUTHORITY SUPERVISION.
 Metar 22/05/2019 17:00 METAR LPMA 221700Z 04010KT 340V070 9999 FEW016 22/14 Q1021=
 Hits: 44 ID: 2302

Debriefing: Photographed movements of Airports in NW-Europe.
The images of our site attendant is in authorisation from Queen of Sky.
Copying of images of this site have been prohibited in which manner without the authorisation of the photographer.
In behalf of the crew :"Thank you visiting us" - Contact
Factsheets Boeing, 737-8K2W, Transavia France, made by De Plane! © 2006 - 2022 All rights reserved


.